| time (UTC) | temp C | wind direction | speed KPH | gust KPH | rain 1hr cm | rain 24hr cm | rain mn cm | humidity % | barometer mb |
| 20260507151540 | 12 | 12 | 3.2 | 16.1 | 0.00 | 0.56 | 0.51 | 84 | 1012.4 |
| 20260507150046 | 12 | 22 | 4.8 | 19.3 | 0.00 | 0.56 | 0.51 | 84 | 1012.4 |
| 20260507144539 | 12 | 340 | 8.0 | 16.1 | 0.00 | 0.56 | 0.51 | 85 | 1012.6 |
| 20260507143036 | 12 | 343 | 3.2 | 16.1 | 0.00 | 0.56 | 0.51 | 88 | 1012.6 |
| 20260507141534 | 12 | 340 | 6.4 | 12.9 | 0.00 | 0.56 | 0.51 | 91 | 1012.8 |
| 20260507140034 | 12 | 343 | 11.3 | 29.0 | 0.00 | 0.56 | 0.51 | 91 | 1012.7 |
| 20260507134529 | 13 | 9 | 3.2 | 12.9 | 0.00 | 0.56 | 0.51 | 94 | 1012.3 |
| 20260507133028 | 13 | 4 | 1.6 | 8.0 | 0.03 | 0.56 | 0.51 | 94 | 1012.2 |
| 20260507131528 | 13 | 352 | 3.2 | 14.5 | 0.05 | 0.56 | 0.51 | 94 | 1012.3 |
| 20260507130044 | 13 | 19 | 0.0 | 9.7 | 0.05 | 0.56 | 0.51 | 94 | 1012.4 |
| 20260507124524 | 13 | 22 | 1.6 | 11.3 | 0.05 | 0.56 | 0.51 | 94 | 1012.0 |
| 20260507123024 | 13 | 8 | 3.2 | 12.9 | 0.08 | 0.53 | 0.48 | 93 | 1012.2 |
| 20260507121522 | 13 | 343 | 4.8 | 17.7 | 0.08 | 0.51 | 0.46 | 93 | 1012.1 |
| 20260507120027 | 13 | 36 | 9.7 | 17.7 | 0.15 | 0.51 | 0.46 | 93 | 1012.2 |
| 20260507114519 | 13 | 11 | 8.0 | 14.5 | 0.15 | 0.51 | 0.46 | 94 | 1012.0 |
| 20260507113014 | 14 | 18 | 3.2 | 11.3 | 0.10 | 0.46 | 0.41 | 94 | 1012.2 |
| 20260507111512 | 14 | 348 | 0.0 | 8.0 | 0.10 | 0.43 | 0.38 | 93 | 1012.0 |
| 20260507110009 | 14 | 311 | 4.8 | 14.5 | 0.03 | 0.36 | 0.30 | 93 | 1011.8 |
| 20260507104506 | 15 | 29 | 4.8 | 22.5 | 0.08 | 0.36 | 0.30 | 92 | 1011.4 |
| 20260507103004 | 15 | 11 | 6.4 | 14.5 | 0.23 | 0.36 | 0.30 | 94 | 1011.1 |
| 20260507101540 | 15 | 344 | 0.0 | 11.3 | 0.23 | 0.33 | 0.28 | 94 | 1011.3 |
| 20260507100046 | 15 | 30 | 3.2 | 14.5 | 0.25 | 0.33 | 0.28 | 93 | 1011.1 |
| 20260507094528 | 16 | 15 | 1.6 | 16.1 | 0.20 | 0.28 | 0.23 | 93 | 1010.9 |
| 20260507093024 | 17 | 6 | 8.0 | 20.9 | 0.05 | 0.13 | 0.08 | 92 | 1010.8 |
| 20260507091520 | 18 | 207 | 0.0 | 0.0 | 0.03 | 0.10 | 0.05 | 94 | 1010.3 |
| 20260507090020 | 18 | 155 | 0.0 | 0.0 | 0.00 | 0.08 | 0.03 | 93 | 1010.1 |
| 20260507084519 | 18 | 233 | 0.0 | 4.8 | 0.00 | 0.08 | 0.03 | 93 | 1010.1 |
| 20260507083019 | 18 | 153 | 0.0 | 1.6 | 0.00 | 0.08 | 0.03 | 93 | 1010.1 |
| 20260507081519 | 19 | 227 | 0.0 | 4.8 | 0.00 | 0.08 | 0.03 | 92 | 1010.3 |
| 20260507080017 | 19 | 174 | 0.0 | 8.0 | 0.00 | 0.08 | 0.03 | 92 | 1010.0 |
| 20260507074515 | 19 | 175 | 4.8 | 17.7 | 0.00 | 0.08 | 0.03 | 92 | 1010.1 |
| 20260507073014 | 19 | 187 | 1.6 | 12.9 | 0.00 | 0.08 | 0.03 | 92 | 1010.2 |
| 20260507071513 | 19 | 189 | 11.3 | 19.3 | 0.00 | 0.08 | 0.03 | 92 | 1010.3 |
| 20260507070013 | 19 | 174 | 8.0 | 17.7 | 0.03 | 0.08 | 0.03 | 92 | 1009.8 |
| 20260507064510 | 19 | 218 | 9.7 | 19.3 | 0.03 | 0.08 | 0.03 | 92 | 1009.7 |
| 20260507063007 | 19 | 182 | 3.2 | 14.5 | 0.03 | 0.08 | 0.03 | 91 | 1009.3 |
| 20260507061504 | 20 | 174 | 8.0 | 14.5 | 0.03 | 0.08 | 0.03 | 89 | 1009.4 |
| 20260507054557 | 21 | 190 | 9.7 | 24.1 | 0.00 | 0.05 | 0.00 | 84 | 1010.5 |
| 20260507053056 | 21 | 201 | 6.4 | 16.1 | 0.00 | 0.05 | 0.00 | 83 | 1010.9 |
| 20260507051554 | 21 | 206 | 6.4 | 14.5 | 0.00 | 0.05 | 0.00 | 83 | 1011.0 |
| 20260507050052 | 21 | 151 | 8.0 | 17.7 | 0.00 | 0.05 | 0.00 | 82 | 1011.1 |
| 20260507044551 | 21 | 197 | 6.4 | 17.7 | 0.00 | 0.05 | 0.00 | 81 | 1011.2 |
| 20260507043049 | 21 | 225 | 4.8 | 14.5 | 0.00 | 0.05 | 0.00 | 81 | 1011.0 |
| 20260507041549 | 21 | 185 | 4.8 | 12.9 | 0.00 | 0.05 | 0.00 | 81 | 1010.9 |
| 20260507040045 | 21 | 185 | 4.8 | 14.5 | 0.00 | 0.05 | 0.00 | 81 | 1011.0 |
| 20260507034546 | 21 | 193 | 1.6 | 14.5 | 0.00 | 0.05 | 0.05 | 81 | 1011.1 |
| 20260507033044 | 20 | 219 | 4.8 | 12.9 | 0.00 | 0.05 | 0.05 | 82 | 1011.0 |
| 20260507031543 | 20 | 232 | 4.8 | 11.3 | 0.00 | 0.05 | 0.05 | 82 | 1010.9 |
| 20260507030043 | 20 | 174 | 4.8 | 9.7 | 0.00 | 0.05 | 0.05 | 82 | 1011.0 |
| 20260507024547 | 20 | 204 | 1.6 | 8.0 | 0.00 | 0.05 | 0.05 | 82 | 1010.9 |
| 20260507023043 | 20 | 214 | 4.8 | 9.7 | 0.00 | 0.05 | 0.05 | 82 | 1011.3 |
| 20260507021542 | 20 | 165 | 3.2 | 9.7 | 0.00 | 0.05 | 0.05 | 82 | 1011.2 |
| 20260507020057 | 20 | 213 | 4.8 | 9.7 | 0.00 | 0.05 | 0.05 | 82 | 1011.2 |
| 20260507014544 | 20 | 191 | 1.6 | 8.0 | 0.00 | 0.05 | 0.05 | 81 | 1011.2 |
| 20260507013045 | 20 | 191 | 1.6 | 6.4 | 0.00 | 0.05 | 0.05 | 80 | 1011.3 |
| 20260507011539 | 21 | 213 | 0.0 | 8.0 | 0.00 | 0.05 | 0.05 | 80 | 1011.1 |
| 20260507010038 | 21 | 164 | 0.0 | 6.4 | 0.00 | 0.05 | 0.05 | 78 | 1011.1 |
| 20260507004541 | 21 | 205 | 1.6 | 11.3 | 0.00 | 0.05 | 0.05 | 77 | 1011.2 |
| 20260507003037 | 21 | 152 | 3.2 | 11.3 | 0.00 | 0.05 | 0.05 | 76 | 1011.1 |
| 20260507001538 | 22 | 193 | 0.0 | 12.9 | 0.00 | 0.05 | 0.05 | 76 | 1011.0 |
| 20260507000036 | 22 | 200 | 3.2 | 14.5 | 0.00 | 0.05 | 0.05 | 74 | 1010.8 |
| 20260506234538 | 22 | 203 | 4.8 | 19.3 | 0.00 | 0.05 | 0.05 | 73 | 1010.9 |
| 20260506233135 | 22 | 184 | 4.8 | 12.9 | 0.00 | 0.05 | 0.05 | 72 | 1010.8 |
| 20260506231545 | 22 | 198 | 4.8 | 14.5 | 0.00 | 0.05 | 0.05 | 72 | 1010.6 |
| 20260506230047 | 23 | 227 | 11.3 | 19.3 | 0.00 | 0.05 | 0.05 | 71 | 1010.6 |
| 20260506224532 | 23 | 167 | 6.4 | 14.5 | 0.00 | 0.05 | 0.05 | 72 | 1010.6 |
| 20260506223045 | 23 | 212 | 3.2 | 14.5 | 0.00 | 0.05 | 0.05 | 71 | 1010.5 |
| 20260506221531 | 23 | 180 | 6.4 | 14.5 | 0.00 | 0.05 | 0.05 | 71 | 1010.6 |
| 20260506220032 | 23 | 183 | 3.2 | 14.5 | 0.00 | 0.05 | 0.05 | 71 | 1010.9 |
| 20260506214530 | 23 | 190 | 3.2 | 16.1 | 0.00 | 0.05 | 0.05 | 71 | 1010.6 |
| 20260506213030 | 23 | 199 | 3.2 | 12.9 | 0.00 | 0.05 | 0.05 | 71 | 1010.5 |
| 20260506211539 | 23 | 206 | 6.4 | 20.9 | 0.00 | 0.05 | 0.05 | 71 | 1010.7 |
| 20260506210034 | 23 | 212 | 6.4 | 20.9 | 0.00 | 0.05 | 0.05 | 70 | 1010.6 |
| 20260506204529 | 23 | 205 | 17.7 | 32.2 | 0.00 | 0.05 | 0.05 | 69 | 1010.2 |
| 20260506203030 | 23 | 153 | 16.1 | 27.4 | 0.00 | 0.05 | 0.05 | 69 | 1010.2 |
| 20260506201534 | 23 | 227 | 8.0 | 19.3 | 0.00 | 0.05 | 0.05 | 70 | 1010.0 |
| 20260506200023 | 23 | 172 | 8.0 | 30.6 | 0.00 | 0.05 | 0.05 | 70 | 1010.4 |
| 20260506194526 | 22 | 218 | 11.3 | 22.5 | 0.00 | 0.05 | 0.05 | 70 | 1010.5 |
| 20260506193018 | 22 | 176 | 11.3 | 20.9 | 0.00 | 0.05 | 0.05 | 71 | 1010.8 |
| 20260506191516 | 22 | 218 | 6.4 | 12.9 | 0.00 | 0.05 | 0.05 | 72 | 1011.5 |
| 20260506190013 | 22 | 195 | 4.8 | 14.5 | 0.00 | 0.05 | 0.05 | 73 | 1011.8 |
| 20260506184511 | 21 | 177 | 6.4 | 16.1 | 0.00 | 0.05 | 0.05 | 75 | 1012.0 |
| 20260506183016 | 21 | 193 | 6.4 | 19.3 | 0.00 | 0.05 | 0.05 | 75 | 1012.3 |
| 20260506181510 | 22 | 169 | 4.8 | 20.9 | 0.00 | 0.05 | 0.05 | 73 | 1012.3 |
| 20260506180012 | 22 | 221 | 11.3 | 22.5 | 0.03 | 0.05 | 0.05 | 70 | 1012.3 |
| 20260506174510 | 22 | 207 | 11.3 | 27.4 | 0.03 | 0.05 | 0.05 | 72 | 1012.2 |
| 20260506173002 | 21 | 217 | 11.3 | 20.9 | 0.03 | 0.05 | 0.05 | 74 | 1012.2 |
| 20260506171502 | 21 | 209 | 11.3 | 20.9 | 0.03 | 0.05 | 0.05 | 75 | 1012.3 |
| 20260506170114 | 20 | 219 | 6.4 | 19.3 | 0.00 | 0.03 | 0.03 | 79 | 1012.6 |
| 20260506164556 | 20 | 179 | 9.7 | 17.7 | 0.00 | 0.03 | 0.03 | 79 | 1013.0 |
| 20260506163109 | 20 | 193 | 11.3 | 20.9 | 0.00 | 0.03 | 0.03 | 80 | 1013.0 |
| 20260506161554 | 19 | 161 | 4.8 | 12.9 | 0.00 | 0.03 | 0.03 | 81 | 1013.4 |
| 20260506160052 | 19 | 174 | 4.8 | 12.9 | 0.03 | 0.03 | 0.03 | 83 | 1013.6 |
| 20260506154551 | 18 | 195 | 1.6 | 6.4 | 0.03 | 0.03 | 0.03 | 84 | 1013.9 |
| 20260506153049 | 18 | 169 | 3.2 | 14.5 | 0.03 | 0.03 | 0.03 | 82 | 1014.2 |